Time;durP1;ratioP1;P1;durP2;ratioP2;P2;SDS_P1;SDS_P2;PMS_P1;PMS_P2;Temp;Humidity;BMP_temperature;BMP_pressure;BME280_temperature;BME280_humidity;BME280_pressure;Samples;Min_cycle;Max_cycle;Signal;HPM_P1;HPM_P2
2023/08/04 00:00:11;;;;;;;6.97;3.97;;;13.50;99.90;;;;;;5050969;28;20052;-82
2023/08/04 00:02:38;;;;;;;7.45;4.20;;;13.50;99.90;;;;;;5052302;28;20414;-82
2023/08/04 00:05:05;;;;;;;7.45;3.78;;;13.50;99.90;;;;;;5050645;28;20414;-81
2023/08/04 00:07:32;;;;;;;7.22;3.97;;;13.50;99.90;;;;;;5050370;28;20037;-79
2023/08/04 00:09:58;;;;;;;4.90;4.28;;;13.40;99.90;;;;;;5050511;28;20017;-80
2023/08/04 00:12:24;;;;;;;8.98;7.68;;;13.30;99.90;;;;;;5050981;28;20017;-80
2023/08/04 00:14:49;;;;;;;7.85;5.03;;;13.30;99.90;;;;;;5052083;28;20049;-80
2023/08/04 00:17:16;;;;;;;7.38;4.78;;;13.30;99.90;;;;;;5052379;28;20060;-80
2023/08/04 00:19:42;;;;;;;5.57;3.90;;;13.30;99.90;;;;;;5050667;28;20020;-82
2023/08/04 00:22:08;;;;;;;7.63;5.00;;;13.30;99.90;;;;;;5052233;28;20387;-79
2023/08/04 00:24:34;;;;;;;7.22;4.22;;;13.30;99.90;;;;;;5050727;28;20021;-79
2023/08/04 00:27:00;;;;;;;5.80;3.90;;;13.30;99.90;;;;;;5052007;28;20032;-81
2023/08/04 00:29:26;;;;;;;9.40;4.55;;;13.30;99.90;;;;;;5049312;28;20013;-80
2023/08/04 00:31:52;;;;;;;7.97;4.88;;;13.40;99.90;;;;;;5050512;28;20028;-78
2023/08/04 00:34:18;;;;;;;8.10;4.30;;;13.40;99.90;;;;;;5050898;28;20025;-81
2023/08/04 00:36:49;;;;;;;5.85;4.68;;;13.40;99.90;;;;;;5053690;28;20017;-79
2023/08/04 00:39:15;;;;;;;8.02;5.47;;;13.40;99.90;;;;;;5054540;28;20021;-81
2023/08/04 00:41:42;;;;;;;10.80;7.05;;;13.30;99.90;;;;;;5054053;28;20047;-81
2023/08/04 00:44:07;;;;;;;10.13;6.72;;;13.30;99.90;;;;;;5054453;28;20398;-79
2023/08/04 00:46:34;;;;;;;7.30;5.50;;;13.30;99.90;;;;;;5053861;28;20033;-81
2023/08/04 00:49:01;;;;;;;8.85;5.63;;;13.30;99.90;;;;;;5054180;28;20032;-81
2023/08/04 00:51:27;;;;;;;8.05;5.40;;;13.30;99.90;;;;;;5054048;28;20029;-79
2023/08/04 00:53:53;;;;;;;9.82;5.15;;;13.40;99.90;;;;;;5054142;28;20021;-81
2023/08/04 00:56:19;;;;;;;6.45;4.63;;;13.40;99.90;;;;;;5054066;28;20087;-79
2023/08/04 00:58:45;;;;;;;5.20;4.20;;;13.40;99.90;;;;;;5054015;28;20395;-79
2023/08/04 01:01:10;;;;;;;5.82;5.18;;;13.40;99.90;;;;;;5055131;28;20044;-79
2023/08/04 01:03:38;;;;;;;11.30;5.40;;;13.50;99.90;;;;;;5053404;28;20049;-81
2023/08/04 01:06:11;;;;;;;9.45;6.95;;;13.40;99.90;;;;;;5054977;28;20040;-81
2023/08/04 01:08:42;;;;;;;7.28;5.47;;;13.40;99.90;;;;;;5053728;28;20028;-81
2023/08/04 01:11:13;;;;;;;12.32;6.40;;;13.40;99.90;;;;;;5053516;28;20025;-79
2023/08/04 01:13:42;;;;;;;8.40;4.72;;;13.40;99.90;;;;;;5054906;28;20427;-81
2023/08/04 01:16:08;;;;;;;8.45;5.15;;;13.40;99.90;;;;;;5053112;28;20036;-81
2023/08/04 01:18:34;;;;;;;6.65;4.53;;;13.50;99.90;;;;;;5053557;28;20025;-80
2023/08/04 01:21:03;;;;;;;9.32;4.35;;;13.50;99.90;;;;;;5054985;28;20029;-81
2023/08/04 01:23:29;;;;;;;8.40;5.07;;;13.60;99.90;;;;;;5053541;28;20036;-80
2023/08/04 01:25:55;;;;;;;7.38;4.13;;;13.60;99.90;;;;;;5054518;28;20017;-81
2023/08/04 01:28:21;;;;;;;6.40;4.30;;;13.60;99.90;;;;;;5053928;28;20029;-79
2023/08/04 01:30:50;;;;;;;7.57;4.45;;;13.60;99.90;;;;;;5043815;28;20402;-81
2023/08/04 01:33:16;;;;;;;10.52;4.60;;;13.60;99.90;;;;;;5049758;28;20021;-79
2023/08/04 01:35:42;;;;;;;8.93;4.68;;;13.60;99.90;;;;;;5054589;28;20024;-79
2023/08/04 01:38:09;;;;;;;11.02;5.05;;;13.60;99.90;;;;;;5053198;28;20125;-81
2023/08/04 01:40:35;;;;;;;7.80;4.10;;;13.70;99.90;;;;;;5054531;28;20439;-81
2023/08/04 01:43:00;;;;;;;8.13;4.53;;;13.70;99.90;;;;;;5052474;28;20060;-80
2023/08/04 01:45:26;;;;;;;11.75;5.32;;;13.70;99.90;;;;;;5052918;28;20025;-80
2023/08/04 01:47:52;;;;;;;11.35;4.30;;;13.70;99.90;;;;;;5052382;28;20079;-81
2023/08/04 01:50:18;;;;;;;9.68;4.78;;;13.80;99.90;;;;;;5049023;28;20017;-80
2023/08/04 01:52:43;;;;;;;8.60;4.45;;;13.80;99.90;;;;;;5054502;28;20044;-80
2023/08/04 01:55:09;;;;;;;10.80;4.22;;;13.80;99.90;;;;;;5042614;28;20416;-80
2023/08/04 01:57:34;;;;;;;6.72;4.47;;;13.80;99.90;;;;;;5053078;28;20440;-80
2023/08/04 02:00:00;;;;;;;9.65;4.80;;;13.80;99.90;;;;;;5051952;28;20360;-80
2023/08/04 02:02:26;;;;;;;9.80;4.95;;;13.80;99.90;;;;;;5033099;28;20029;-79
2023/08/04 02:04:51;;;;;;;7.97;4.80;;;13.70;99.90;;;;;;5052666;28;20056;-79
2023/08/04 02:07:17;;;;;;;10.20;7.20;;;13.70;99.90;;;;;;5050527;28;20025;-79
2023/08/04 02:09:42;;;;;;;8.15;5.47;;;13.60;99.90;;;;;;5052840;28;20027;-79
2023/08/04 02:12:08;;;;;;;12.45;6.65;;;13.60;99.90;;;;;;5053687;28;20035;-78
2023/08/04 02:14:34;;;;;;;7.90;4.88;;;13.60;99.90;;;;;;5054166;28;20032;-79
2023/08/04 02:16:59;;;;;;;11.85;5.30;;;13.60;99.90;;;;;;5054024;28;20139;-79
2023/08/04 02:19:25;;;;;;;8.60;5.53;;;13.60;99.90;;;;;;5054212;28;20021;-80
2023/08/04 02:21:51;;;;;;;9.57;5.18;;;13.70;99.90;;;;;;5053252;28;20111;-80
2023/08/04 02:24:17;;;;;;;8.95;5.03;;;13.60;99.90;;;;;;5049961;28;20043;-78
2023/08/04 02:26:45;;;;;;;10.88;5.80;;;13.70;99.90;;;;;;5053600;28;20482;-78
2023/08/04 02:29:12;;;;;;;9.40;4.55;;;13.60;99.90;;;;;;5053609;28;20028;-79
2023/08/04 02:31:38;;;;;;;9.55;4.93;;;13.70;99.90;;;;;;5052622;28;20382;-78
2023/08/04 02:34:04;;;;;;;8.55;5.07;;;13.70;99.90;;;;;;5052319;28;20109;-79
2023/08/04 02:36:30;;;;;;;12.77;7.53;;;13.70;99.90;;;;;;5052376;28;20082;-81
2023/08/04 02:38:55;;;;;;;12.20;7.90;;;13.70;99.90;;;;;;5053556;28;20430;-79
2023/08/04 02:41:21;;;;;;;9.57;5.93;;;13.80;99.90;;;;;;5052224;28;20112;-79
2023/08/04 02:43:47;;;;;;;15.20;6.43;;;13.80;99.90;;;;;;5052067;28;20386;-79
2023/08/04 02:46:13;;;;;;;13.85;8.23;;;13.80;99.90;;;;;;5053458;28;20600;-81
2023/08/04 02:48:39;;;;;;;15.25;8.70;;;13.80;99.90;;;;;;5051782;28;20029;-79
2023/08/04 02:51:07;;;;;;;13.10;8.07;;;13.80;99.90;;;;;;5053278;28;20028;-80
2023/08/04 02:53:35;;;;;;;10.60;7.18;;;13.80;99.90;;;;;;5045295;28;20025;-80
2023/08/04 02:56:07;;;;;;;9.13;6.97;;;13.80;99.90;;;;;;5047275;28;20028;-80
2023/08/04 02:58:33;;;;;;;9.32;5.40;;;13.80;99.90;;;;;;5053602;28;20488;-81
2023/08/04 03:00:59;;;;;;;11.85;5.82;;;13.80;99.90;;;;;;5052069;28;20059;-79
2023/08/04 03:03:24;;;;;;;8.80;4.38;;;13.80;99.90;;;;;;5053275;28;20068;-81
2023/08/04 03:05:50;;;;;;;8.75;4.22;;;13.80;99.90;;;;;;5038585;28;20092;-79
2023/08/04 03:08:16;;;;;;;8.40;4.72;;;13.90;99.90;;;;;;5051958;28;20025;-79
2023/08/04 03:10:42;;;;;;;6.80;3.75;;;13.90;99.90;;;;;;5053058;28;20466;-79
2023/08/04 03:13:10;;;;;;;8.40;3.88;;;13.90;99.90;;;;;;5051911;28;20032;-79
2023/08/04 03:15:36;;;;;;;7.50;3.80;;;14.00;99.90;;;;;;5050154;28;20024;-80
2023/08/04 03:18:02;;;;;;;9.75;4.78;;;14.00;99.90;;;;;;5051597;28;20381;-81
2023/08/04 03:20:30;;;;;;;10.55;4.32;;;14.00;99.90;;;;;;5051382;28;20036;-82
2023/08/04 03:22:57;;;;;;;10.80;3.90;;;14.00;99.90;;;;;;5051181;28;20478;-81
2023/08/04 03:25:22;;;;;;;8.32;4.05;;;14.00;99.90;;;;;;5052688;28;20032;-80
2023/08/04 03:27:48;;;;;;;14.52;3.75;;;14.00;99.90;;;;;;5052713;28;20032;-80
2023/08/04 03:30:13;;;;;;;6.53;3.55;;;14.00;99.90;;;;;;5051309;28;20429;-82
2023/08/04 03:32:39;;;;;;;10.65;4.32;;;14.00;99.90;;;;;;5050728;28;20017;-80
2023/08/04 03:35:05;;;;;;;8.02;3.42;;;14.00;99.90;;;;;;5052655;28;20482;-82
2023/08/04 03:37:30;;;;;;;11.20;4.40;;;14.00;99.90;;;;;;5052290;28;20017;-80
2023/08/04 03:39:56;;;;;;;6.38;3.63;;;14.00;99.90;;;;;;5052476;28;20028;-82
2023/08/04 03:42:22;;;;;;;11.73;5.43;;;14.00;99.90;;;;;;5051332;28;20067;-81
2023/08/04 03:44:47;;;;;;;7.07;3.60;;;14.00;99.90;;;;;;5052537;28;20024;-81
2023/08/04 03:47:13;;;;;;;7.22;4.47;;;14.00;99.90;;;;;;5052279;28;20037;-80
2023/08/04 03:49:39;;;;;;;11.63;4.93;;;13.90;99.90;;;;;;5051180;28;20053;-80
2023/08/04 03:52:04;;;;;;;6.97;4.35;;;13.80;99.90;;;;;;5050951;28;20028;-80
2023/08/04 03:54:30;;;;;;;7.07;4.18;;;13.80;99.90;;;;;;5050963;28;20052;-81
2023/08/04 03:56:56;;;;;;;10.55;4.88;;;13.80;99.90;;;;;;5052145;28;20070;-79
2023/08/04 03:59:21;;;;;;;8.90;4.68;;;13.80;99.90;;;;;;5051102;28;20437;-79
2023/08/04 04:01:47;;;;;;;11.85;4.88;;;13.80;99.90;;;;;;5051108;28;20540;-79
2023/08/04 04:04:12;;;;;;;10.68;6.40;;;13.80;99.90;;;;;;5039098;28;20049;-79
2023/08/04 04:06:38;;;;;;;9.18;5.55;;;13.90;99.90;;;;;;5049246;28;20064;-81
2023/08/04 04:09:04;;;;;;;9.80;5.05;;;13.90;99.90;;;;;;5043875;28;20028;-81
2023/08/04 04:11:29;;;;;;;8.10;5.03;;;13.90;99.90;;;;;;5039496;28;20029;-81
2023/08/04 04:13:55;;;;;;;7.75;4.82;;;14.00;99.90;;;;;;5049604;28;20029;-82
2023/08/04 04:16:21;;;;;;;13.02;5.25;;;14.10;99.90;;;;;;5054473;28;20025;-81
2023/08/04 04:18:46;;;;;;;9.98;5.43;;;14.10;99.90;;;;;;5051257;28;20071;-81
2023/08/04 04:21:12;;;;;;;9.30;5.97;;;14.20;99.90;;;;;;5052310;28;20032;-81
2023/08/04 04:23:38;;;;;;;8.55;5.50;;;14.20;99.90;;;;;;5053898;28;20133;-81
2023/08/04 04:26:07;;;;;;;9.73;5.03;;;14.30;99.90;;;;;;5053431;28;20029;-81
2023/08/04 04:28:33;;;;;;;9.55;5.72;;;14.30;99.90;;;;;;5052318;28;20513;-81
2023/08/04 04:31:05;;;;;;;11.48;4.97;;;14.40;99.90;;;;;;5051556;28;20025;-81
2023/08/04 04:33:31;;;;;;;9.02;4.53;;;14.50;99.90;;;;;;5052683;28;20032;-81
2023/08/04 04:35:56;;;;;;;9.88;4.53;;;14.50;99.90;;;;;;5053018;28;20021;-81
2023/08/04 04:38:28;;;;;;;9.25;4.68;;;14.60;99.90;;;;;;5052654;28;20504;-80
2023/08/04 04:40:58;;;;;;;7.40;4.40;;;14.60;99.90;;;;;;5040067;28;20021;-80
2023/08/04 04:43:24;;;;;;;9.82;4.32;;;14.70;99.90;;;;;;5053320;28;20033;-80
2023/08/04 04:45:51;;;;;;;11.35;6.47;;;14.70;99.90;;;;;;5053613;28;20021;-82
2023/08/04 04:48:18;;;;;;;8.98;5.60;;;14.80;99.90;;;;;;5052029;28;20029;-81
2023/08/04 04:50:44;;;;;;;13.40;6.35;;;14.80;99.90;;;;;;5053708;28;20367;-81
2023/08/04 04:53:10;;;;;;;9.07;6.50;;;14.80;99.90;;;;;;5052951;28;20047;-81
2023/08/04 04:55:35;;;;;;;12.43;6.85;;;14.90;99.90;;;;;;5054178;28;20017;-80
2023/08/04 04:58:02;;;;;;;13.30;5.80;;;14.90;99.90;;;;;;5046619;28;20036;-81
2023/08/04 05:00:27;;;;;;;7.00;3.90;;;14.90;99.90;;;;;;5055368;28;20051;-82
2023/08/04 05:02:53;;;;;;;7.63;3.90;;;14.80;99.90;;;;;;5053644;28;20021;-81
2023/08/04 05:05:19;;;;;;;8.05;3.85;;;14.90;99.90;;;;;;5053892;28;20458;-81
2023/08/04 05:07:44;;;;;;;10.20;5.13;;;14.90;99.90;;;;;;5055066;28;20029;-80
2023/08/04 05:10:10;;;;;;;10.30;4.22;;;15.00;99.90;;;;;;5053598;28;20032;-82
2023/08/04 05:12:36;;;;;;;8.60;4.78;;;15.10;99.90;;;;;;5052966;28;20017;-80
2023/08/04 05:15:02;;;;;;;9.98;5.50;;;15.10;99.90;;;;;;5055037;28;20382;-82
2023/08/04 05:17:27;;;;;;;9.05;5.07;;;15.20;99.90;;;;;;5054949;28;20467;-82
2023/08/04 05:19:53;;;;;;;15.80;6.85;;;15.20;99.90;;;;;;5053249;28;20551;-80
2023/08/04 05:22:19;;;;;;;9.38;6.05;;;15.30;99.90;;;;;;5053033;28;20066;-82
2023/08/04 05:24:45;;;;;;;10.60;6.35;;;15.40;99.90;;;;;;5054349;28;20017;-81
2023/08/04 05:27:10;;;;;;;9.15;5.18;;;15.40;99.90;;;;;;5053152;28;20036;-80
2023/08/04 05:29:36;;;;;;;9.43;4.82;;;15.50;99.90;;;;;;5054877;28;20029;-82
2023/08/04 05:32:01;;;;;;;10.32;4.60;;;15.60;99.90;;;;;;5053376;28;20540;-82
2023/08/04 05:34:27;;;;;;;7.85;5.07;;;15.60;99.90;;;;;;5054575;28;20021;-80
2023/08/04 05:36:52;;;;;;;6.97;4.18;;;15.70;99.90;;;;;;5045016;28;20025;-80
2023/08/04 05:39:18;;;;;;;6.95;3.47;;;15.80;99.90;;;;;;5048175;28;20462;-80
2023/08/04 05:41:45;;;;;;;7.70;4.45;;;15.90;99.90;;;;;;5054738;28;20047;-82
2023/08/04 05:44:11;;;;;;;5.93;3.50;;;15.90;99.90;;;;;;5053009;28;20021;-80
2023/08/04 05:46:36;;;;;;;10.70;5.55;;;16.00;99.90;;;;;;5054234;28;20029;-82
2023/08/04 05:49:02;;;;;;;7.18;3.83;;;16.10;99.90;;;;;;5050926;28;21330;-82
2023/08/04 05:51:27;;;;;;;6.45;4.38;;;16.20;99.90;;;;;;5045178;28;20039;-82
2023/08/04 05:53:53;;;;;;;10.88;5.65;;;16.20;99.90;;;;;;5043586;28;20032;-82
2023/08/04 05:56:19;;;;;;;9.85;4.85;;;16.40;99.90;;;;;;5043521;28;20025;-82
2023/08/04 05:58:44;;;;;;;8.30;5.68;;;16.50;99.90;;;;;;5050562;28;20367;-82
2023/08/04 06:01:10;;;;;;;9.57;5.35;;;16.60;99.90;;;;;;5040288;28;20052;-82
2023/08/04 06:03:35;;;;;;;9.98;4.97;;;16.60;99.90;;;;;;5048131;28;20098;-82
2023/08/04 06:06:01;;;;;;;7.22;4.35;;;16.70;99.90;;;;;;5034356;28;20112;-82
2023/08/04 06:08:26;;;;;;;6.32;4.70;;;16.80;99.90;;;;;;5045975;28;20032;-81
2023/08/04 06:10:52;;;;;;;7.07;3.97;;;16.80;99.90;;;;;;5045384;28;20025;-83
2023/08/04 06:13:19;;;;;;;5.30;3.10;;;16.90;99.90;;;;;;5045259;28;20894;-82
2023/08/04 06:15:45;;;;;;;7.90;3.67;;;17.00;99.90;;;;;;5052497;28;20032;-84
2023/08/04 06:18:11;;;;;;;7.80;4.22;;;17.00;99.90;;;;;;5035573;28;20083;-84
2023/08/04 06:20:37;;;;;;;6.53;3.35;;;16.90;99.90;;;;;;5044658;28;20013;-85
2023/08/04 06:23:02;;;;;;;7.22;3.05;;;17.00;99.90;;;;;;5037175;28;20017;-84
2023/08/04 06:25:28;;;;;;;5.90;2.97;;;17.10;99.90;;;;;;5046012;28;20116;-84
2023/08/04 06:27:53;;;;;;;5.32;2.65;;;17.10;99.90;;;;;;5051858;28;20033;-81
2023/08/04 06:30:19;;;;;;;4.85;2.60;;;17.20;99.90;;;;;;5052009;28;20051;-81
2023/08/04 06:32:47;;;;;;;8.80;3.13;;;17.30;99.90;;;;;;5052810;28;20079;-82
2023/08/04 06:35:12;;;;;;;4.95;2.75;;;17.40;99.90;;;;;;5051282;28;20367;-83
2023/08/04 06:37:38;;;;;;;8.07;3.00;;;17.40;99.90;;;;;;5051070;28;20047;-81
2023/08/04 06:40:04;;;;;;;6.95;3.25;;;17.50;99.90;;;;;;5050798;28;20457;-83
2023/08/04 06:42:30;;;;;;;13.23;3.60;;;17.50;99.90;;;;;;5050028;28;20062;-81
2023/08/04 06:44:56;;;;;;;5.88;4.00;;;17.60;99.90;;;;;;5039798;28;20475;-82
2023/08/04 06:47:22;;;;;;;10.90;4.20;;;17.60;99.90;;;;;;5049327;28;20441;-84
2023/08/04 06:49:48;;;;;;;9.63;3.45;;;17.70;99.90;;;;;;5033998;28;20030;-81
2023/08/04 06:52:14;;;;;;;16.65;4.72;;;17.70;99.90;;;;;;5033527;28;20028;-81
2023/08/04 06:54:40;;;;;;;10.45;3.92;;;17.80;99.90;;;;;;5032590;28;20030;-83
2023/08/04 06:57:06;;;;;;;8.38;3.35;;;17.90;99.90;;;;;;5049672;28;20114;-81
2023/08/04 06:59:31;;;;;;;6.18;3.55;;;18.00;99.90;;;;;;5050849;28;20108;-81
2023/08/04 07:01:57;;;;;;;8.23;3.85;;;18.00;99.90;;;;;;5047015;28;20066;-83
2023/08/04 07:04:23;;;;;;;9.20;3.70;;;18.00;99.90;;;;;;5051263;28;20128;-81
2023/08/04 07:06:48;;;;;;;11.20;4.80;;;18.00;99.90;;;;;;5052437;28;20041;-83
2023/08/04 07:09:14;;;;;;;6.38;3.13;;;18.10;99.90;;;;;;5052474;28;20028;-81
2023/08/04 07:11:39;;;;;;;8.23;4.03;;;18.10;99.90;;;;;;5050505;28;20025;-81
2023/08/04 07:14:05;;;;;;;10.23;3.90;;;18.20;99.90;;;;;;5039265;28;20021;-80
2023/08/04 07:16:31;;;;;;;7.65;3.53;;;18.20;99.90;;;;;;5036096;28;20016;-81
2023/08/04 07:18:57;;;;;;;9.95;5.20;;;18.30;99.90;;;;;;5043970;28;20036;-83
2023/08/04 07:21:22;;;;;;;7.63;4.47;;;18.30;99.90;;;;;;5048432;28;20021;-83
2023/08/04 07:23:48;;;;;;;8.20;4.05;;;18.40;99.90;;;;;;5050297;28;20031;-83
2023/08/04 07:26:13;;;;;;;11.77;4.20;;;18.40;99.90;;;;;;5050713;28;20090;-81
2023/08/04 07:28:39;;;;;;;7.82;3.90;;;18.50;99.90;;;;;;5062602;28;20032;-81
2023/08/04 07:31:06;;;;;;;7.50;3.55;;;18.50;99.90;;;;;;5051408;28;20107;-83
2023/08/04 07:33:31;;;;;;;11.13;3.67;;;18.50;99.90;;;;;;5048437;28;20060;-81
2023/08/04 07:35:58;;;;;;;10.70;3.88;;;18.60;99.90;;;;;;5034467;28;20040;-83
2023/08/04 07:38:24;;;;;;;10.10;4.70;;;18.70;99.90;;;;;;5047622;28;20032;-83
2023/08/04 07:40:50;;;;;;;8.90;4.07;;;18.80;99.90;;;;;;5047898;28;20121;-81
2023/08/04 07:43:16;;;;;;;6.03;3.45;;;18.90;99.90;;;;;;5041077;28;20525;-84
2023/08/04 07:45:43;;;;;;;6.55;3.20;;;18.90;99.90;;;;;;5047952;28;20116;-83
2023/08/04 07:48:08;;;;;;;5.00;2.55;;;19.10;99.90;;;;;;5054283;28;20530;-83
2023/08/04 07:50:39;;;;;;;4.70;2.80;;;19.20;99.90;;;;;;5056454;28;20025;-81
2023/08/04 07:53:05;;;;;;;10.52;3.15;;;19.30;99.90;;;;;;5055053;28;20025;-84
2023/08/04 07:55:36;;;;;;;7.65;3.33;;;19.40;99.90;;;;;;5056643;28;20070;-83
2023/08/04 07:58:03;;;;;;;8.10;3.13;;;19.50;99.90;;;;;;5056364;28;20021;-81
2023/08/04 08:00:28;;;;;;;8.10;3.17;;;19.50;99.90;;;;;;5054379;28;20024;-81
2023/08/04 08:02:54;;;;;;;9.70;3.22;;;19.60;99.90;;;;;;5054620;28;20385;-81
2023/08/04 08:05:19;;;;;;;5.60;2.90;;;19.50;99.90;;;;;;5055252;28;20013;-83
2023/08/04 08:07:45;;;;;;;7.35;3.22;;;19.50;99.90;;;;;;5056068;28;20478;-82
2023/08/04 08:10:11;;;;;;;7.82;3.15;;;19.50;99.90;;;;;;5055142;28;20017;-82
2023/08/04 08:12:37;;;;;;;6.10;2.80;;;19.50;99.90;;;;;;5056133;28;20446;-83
2023/08/04 08:15:05;;;;;;;6.50;3.13;;;19.50;99.90;;;;;;5056484;28;20017;-81
2023/08/04 08:17:31;;;;;;;6.88;2.78;;;19.40;99.90;;;;;;5054627;28;20449;-81
2023/08/04 08:19:57;;;;;;;8.15;2.92;;;19.40;99.90;;;;;;5055991;28;20021;-82
2023/08/04 08:22:22;;;;;;;11.15;4.15;;;19.40;99.90;;;;;;5055968;28;20473;-80
2023/08/04 08:24:53;;;;;;;7.38;2.50;;;19.50;99.90;;;;;;5055964;28;20406;-81
2023/08/04 08:27:18;;;;;;;5.53;2.78;;;19.50;99.90;;;;;;5054185;28;20130;-82
2023/08/04 08:29:44;;;;;;;5.57;2.63;;;19.50;99.90;;;;;;5054774;28;20470;-82
2023/08/04 08:32:10;;;;;;;4.40;2.50;;;19.60;99.90;;;;;;5055524;28;20025;-81
2023/08/04 08:34:35;;;;;;;4.82;2.50;;;19.70;99.90;;;;;;5056054;28;20060;-81
2023/08/04 08:37:02;;;;;;;8.30;2.85;;;19.80;99.90;;;;;;5054285;28;20082;-80
2023/08/04 08:39:29;;;;;;;5.18;2.90;;;19.90;99.90;;;;;;5055715;28;20017;-80
2023/08/04 08:41:57;;;;;;;5.18;2.20;;;20.10;99.90;;;;;;5055046;28;20406;-82
2023/08/04 08:44:22;;;;;;;4.95;2.00;;;20.10;99.90;;;;;;5054531;28;20112;-82
2023/08/04 08:46:49;;;;;;;7.95;2.53;;;20.30;99.90;;;;;;5054370;28;20112;-81
2023/08/04 08:49:15;;;;;;;6.95;2.40;;;20.40;99.90;;;;;;5055567;28;20025;-80
2023/08/04 08:51:48;;;;;;;6.07;2.92;;;20.50;99.90;;;;;;5051461;28;20017;-83
2023/08/04 08:54:15;;;;;;;4.93;2.55;;;20.70;99.90;;;;;;5045732;28;20166;-80
2023/08/04 08:56:41;;;;;;;3.33;1.90;;;20.80;99.90;;;;;;5054878;28;20025;-82
2023/08/04 08:59:07;;;;;;;4.80;2.22;;;20.70;99.90;;;;;;5055393;28;20037;-80
2023/08/04 09:01:34;;;;;;;4.68;2.17;;;20.60;97.60;;;;;;5053843;28;20104;-82
2023/08/04 09:04:00;;;;;;;5.78;2.05;;;20.60;97.70;;;;;;5053956;28;20061;-83
2023/08/04 09:06:26;;;;;;;9.52;2.67;;;20.60;97.30;;;;;;5053783;28;20051;-83
2023/08/04 09:08:54;;;;;;;6.40;2.35;;;20.70;99.90;;;;;;5055205;28;20021;-83
2023/08/04 09:11:19;;;;;;;12.15;2.47;;;20.70;99.90;;;;;;5053692;28;20109;-83
2023/08/04 09:13:46;;;;;;;6.53;2.55;;;20.80;99.90;;;;;;5053987;28;20459;-83
2023/08/04 09:16:12;;;;;;;3.45;2.22;;;20.90;99.90;;;;;;5053615;28;20071;-80
2023/08/04 09:18:39;;;;;;;7.03;3.72;;;20.90;99.90;;;;;;5047458;28;20125;-80
2023/08/04 09:21:07;;;;;;;6.93;3.25;;;21.00;99.90;;;;;;5038135;28;20017;-82
2023/08/04 09:23:41;;;;;;;7.35;2.70;;;21.20;99.90;;;;;;5045481;28;20018;-80
2023/08/04 09:26:06;;;;;;;5.45;2.30;;;21.20;96.40;;;;;;5053026;28;20053;-80
2023/08/04 09:28:32;;;;;;;6.25;2.97;;;21.30;98.30;;;;;;5053451;28;20055;-81
2023/08/04 09:31:07;;;;;;;7.40;3.35;;;21.30;92.40;;;;;;5051126;28;20029;-79
2023/08/04 09:33:34;;;;;;;7.32;3.15;;;21.40;93.70;;;;;;5039949;28;20035;-80
2023/08/04 09:36:02;;;;;;;6.72;3.00;;;21.40;92.70;;;;;;5034128;28;20056;-80
2023/08/04 09:38:28;;;;;;;7.57;4.03;;;21.50;93.90;;;;;;5046443;28;20017;-78
2023/08/04 09:41:05;;;;;;;5.88;3.97;;;21.50;91.90;;;;;;5031991;28;20026;-79
2023/08/04 09:43:31;;;;;;;11.48;4.20;;;21.60;92.40;;;;;;5035978;28;20697;-79
2023/08/04 09:46:06;;;;;;;13.65;3.90;;;21.70;94.30;;;;;;5044290;28;20061;-79
2023/08/04 09:48:33;;;;;;;6.78;3.60;;;21.80;96.10;;;;;;5045595;28;20064;-79
2023/08/04 09:51:14;;;;;;;8.00;3.35;;;21.80;91.50;;;;;;5033002;28;20104;-79
2023/08/04 09:53:44;;;;;;;9.40;4.03;;;21.90;91.70;;;;;;5033817;28;20418;-79
2023/08/04 09:56:11;;;;;;;8.98;4.10;;;21.90;93.00;;;;;;5047346;28;20025;-83
2023/08/04 09:58:38;;;;;;;9.63;4.60;;;22.00;95.20;;;;;;5051489;28;20120;-82
2023/08/04 10:01:04;;;;;;;8.27;4.15;;;22.10;89.00;;;;;;5051114;28;20017;-82
2023/08/04 10:03:29;;;;;;;6.72;3.78;;;22.10;89.20;;;;;;5050907;28;20094;-82
2023/08/04 10:06:00;;;;;;;6.97;3.08;;;22.20;90.80;;;;;;5050477;28;20029;-82
2023/08/04 10:08:29;;;;;;;6.60;2.80;;;22.20;90.60;;;;;;5040504;28;20063;-82
2023/08/04 10:10:56;;;;;;;6.78;2.50;;;22.40;88.50;;;;;;5049141;28;20028;-82
2023/08/04 10:13:23;;;;;;;7.70;3.17;;;22.30;84.60;;;;;;5039342;28;20021;-82
2023/08/04 10:15:49;;;;;;;6.47;3.30;;;22.40;86.90;;;;;;5046986;28;20025;-82
2023/08/04 10:18:15;;;;;;;4.45;2.60;;;22.40;85.40;;;;;;5052341;28;20027;-83
2023/08/04 10:20:40;;;;;;;4.68;2.55;;;22.30;83.30;;;;;;5041601;28;20035;-82
2023/08/04 10:23:06;;;;;;;9.70;3.92;;;22.30;80.60;;;;;;5043524;28;20051;-83
2023/08/04 10:25:31;;;;;;;6.55;2.67;;;22.30;79.70;;;;;;5051827;28;20412;-83
2023/08/04 10:28:00;;;;;;;6.15;2.92;;;22.40;81.10;;;;;;5046461;28;20045;-83
2023/08/04 10:30:26;;;;;;;10.65;3.22;;;22.50;83.80;;;;;;5047754;28;20070;-81
2023/08/04 10:32:51;;;;;;;11.65;3.55;;;22.60;84.60;;;;;;5052790;28;20025;-81
2023/08/04 10:35:19;;;;;;;9.90;3.38;;;22.60;82.90;;;;;;5053335;28;20021;-82
2023/08/04 10:37:50;;;;;;;5.43;3.13;;;22.80;81.20;;;;;;5052554;28;20056;-82
2023/08/04 10:40:34;;;;;;;4.65;2.92;;;23.00;78.50;;;;;;5050127;28;20044;-85
2023/08/04 10:43:06;;;;;;;6.72;3.38;;;23.30;77.90;;;;;;5051715;28;20394;-85
2023/08/04 10:45:52;;;;;;;6.43;2.95;;;23.30;74.70;;;;;;5052067;28;20019;-85
2023/08/04 10:48:19;;;;;;;4.90;2.30;;;23.40;78.60;;;;;;5036207;28;20029;-81
2023/08/04 10:50:45;;;;;;;6.65;3.22;;;23.40;74.50;;;;;;5045266;28;20017;-83
2023/08/04 10:53:11;;;;;;;3.15;2.28;;;23.30;74.30;;;;;;5038718;28;20075;-82
2023/08/04 10:55:58;;;;;;;7.07;2.92;;;23.40;75.00;;;;;;5041382;28;20059;-80
2023/08/04 10:58:26;;;;;;;4.90;2.45;;;23.60;74.70;;;;;;5043622;28;20029;-82
2023/08/04 11:00:53;;;;;;;4.53;2.50;;;23.70;74.40;;;;;;5039297;28;20036;-82
2023/08/04 11:03:36;;;;;;;6.30;2.50;;;24.00;74.80;;;;;;5041795;28;20099;-81
2023/08/04 11:06:03;;;;;;;;;;;24.10;74.70;;;;;;5052041;28;20017;-82
2023/08/04 11:08:29;;;;;;;5.60;2.50;;;24.40;75.40;;;;;;5051362;28;19923;-83
2023/08/04 11:10:56;;;;;;;5.13;2.97;;;24.30;70.40;;;;;;5046719;28;20100;-82
2023/08/04 11:13:23;;;;;;;2.83;1.73;;;24.40;69.70;;;;;;5041309;28;20033;-81
2023/08/04 11:15:53;;;;;;;4.47;1.67;;;24.30;64.90;;;;;;5051874;28;20021;-81
2023/08/04 11:18:24;;;;;;;3.83;2.17;;;24.40;64.70;;;;;;5048291;28;20025;-81
2023/08/04 11:20:50;;;;;;;8.63;3.10;;;24.60;65.30;;;;;;5044152;28;20025;-83
2023/08/04 11:23:25;;;;;;;5.97;2.70;;;24.50;67.20;;;;;;5048736;28;20135;-82
2023/08/04 11:25:50;;;;;;;6.45;2.47;;;24.80;68.70;;;;;;5044355;28;20056;-83
2023/08/04 11:28:19;;;;;;;6.57;2.90;;;24.70;66.10;;;;;;5045806;28;20060;-83
2023/08/04 11:30:44;;;;;;;6.53;2.78;;;24.70;67.70;;;;;;5052369;28;20021;-82
2023/08/04 11:33:10;;;;;;;11.10;3.50;;;24.80;68.20;;;;;;5039871;28;20040;-81
2023/08/04 11:35:35;;;;;;;8.63;2.78;;;24.60;66.70;;;;;;5051729;28;20025;-81
2023/08/04 11:38:05;;;;;;;8.98;2.95;;;24.60;66.20;;;;;;5045868;28;20017;-82
2023/08/04 11:40:31;;;;;;;7.47;3.25;;;24.60;66.60;;;;;;5045626;28;20437;-82
2023/08/04 11:42:59;;;;;;;7.38;3.40;;;24.70;67.70;;;;;;5040110;28;20034;-83
2023/08/04 11:45:25;;;;;;;5.63;3.28;;;24.70;66.20;;;;;;5039417;28;20037;-82
2023/08/04 11:47:54;;;;;;;7.88;3.58;;;24.60;64.20;;;;;;5050523;28;20032;-82
2023/08/04 11:50:20;;;;;;;10.43;4.03;;;24.60;64.20;;;;;;5052315;28;20021;-82
2023/08/04 11:52:46;;;;;;;7.13;3.50;;;24.60;66.30;;;;;;5051752;28;20108;-82
2023/08/04 11:55:12;;;;;;;5.32;3.10;;;24.60;68.40;;;;;;5043636;28;20022;-82
2023/08/04 11:57:50;;;;;;;6.10;3.08;;;24.60;67.90;;;;;;5037451;28;20032;-82
2023/08/04 12:00:16;;;;;;;5.72;3.30;;;24.60;66.60;;;;;;5051195;28;20032;-83
2023/08/04 12:02:59;;;;;;;5.32;2.47;;;24.50;66.60;;;;;;5048390;28;20014;-81
2023/08/04 12:05:32;;;;;;;6.78;3.20;;;24.50;66.70;;;;;;5051267;28;20037;-81
2023/08/04 12:07:59;;;;;;;6.75;2.83;;;24.40;68.00;;;;;;5050339;28;20033;-83
2023/08/04 12:10:26;;;;;;;8.60;2.97;;;24.40;66.00;;;;;;5045178;28;20029;-81
2023/08/04 12:12:52;;;;;;;6.28;2.45;;;24.40;67.20;;;;;;5051817;28;20029;-81
2023/08/04 12:15:17;;;;;;;4.65;2.22;;;24.40;68.90;;;;;;5040012;28;20044;-81
2023/08/04 12:17:43;;;;;;;17.20;2.80;;;24.40;68.10;;;;;;5050551;28;20029;-83
2023/08/04 12:20:11;;;;;;;6.32;2.08;;;24.40;69.10;;;;;;5051922;28;20029;-81
2023/08/04 12:22:42;;;;;;;4.13;1.98;;;24.40;68.70;;;;;;5041719;28;20017;-82
2023/08/04 12:25:08;;;;;;;5.57;2.35;;;24.30;68.50;;;;;;5039767;28;20479;-83
2023/08/04 12:27:34;;;;;;;5.28;2.20;;;24.30;69.10;;;;;;5049182;28;20029;-81
2023/08/04 12:30:01;;;;;;;6.78;2.20;;;24.20;67.20;;;;;;5050756;28;20025;-85
2023/08/04 12:32:27;;;;;;;4.50;1.90;;;24.30;67.70;;;;;;5049975;28;20021;-80
2023/08/04 12:34:52;;;;;;;7.00;2.63;;;24.30;68.60;;;;;;5053424;28;20429;-83
2023/08/04 12:37:18;;;;;;;12.27;7.47;;;24.20;67.50;;;;;;5053317;28;20080;-82
2023/08/04 12:39:44;;;;;;;7.63;4.22;;;24.20;68.10;;;;;;5047241;28;20048;-80
2023/08/04 12:42:10;;;;;;;10.57;6.88;;;24.30;68.20;;;;;;5046731;28;20062;-81